sensor_id;sensor_type;location;lat;lon;timestamp;temperature;humidity
12053;DHT22;6087;48.982;12.064;2022-09-06T00:02:17;19.30;99.90
12053;DHT22;6087;48.982;12.064;2022-09-06T00:04:44;19.30;99.90
12053;DHT22;6087;48.982;12.064;2022-09-06T00:07:11;19.30;99.90
12053;DHT22;6087;48.982;12.064;2022-09-06T00:09:39;19.30;99.90
12053;DHT22;6087;48.982;12.064;2022-09-06T00:12:07;19.30;99.90
12053;DHT22;6087;48.982;12.064;2022-09-06T00:14:33;19.30;99.90
12053;DHT22;6087;48.982;12.064;2022-09-06T00:17:00;19.20;99.90
12053;DHT22;6087;48.982;12.064;2022-09-06T00:19:27;19.20;99.90
12053;DHT22;6087;48.982;12.064;2022-09-06T00:21:54;19.20;99.90
12053;DHT22;6087;48.982;12.064;2022-09-06T00:24:21;19.20;99.90
12053;DHT22;6087;48.982;12.064;2022-09-06T00:26:49;19.20;99.90
12053;DHT22;6087;48.982;12.064;2022-09-06T00:29:16;19.20;99.90
12053;DHT22;6087;48.982;12.064;2022-09-06T00:31:43;19.20;99.90
12053;DHT22;6087;48.982;12.064;2022-09-06T00:34:10;19.20;99.90
12053;DHT22;6087;48.982;12.064;2022-09-06T00:36:37;19.20;99.90
12053;DHT22;6087;48.982;12.064;2022-09-06T00:39:04;19.20;99.90
12053;DHT22;6087;48.982;12.064;2022-09-06T00:41:31;19.20;99.90
12053;DHT22;6087;48.982;12.064;2022-09-06T00:43:59;19.20;99.90
12053;DHT22;6087;48.982;12.064;2022-09-06T00:46:28;19.20;99.90
12053;DHT22;6087;48.982;12.064;2022-09-06T00:49:00;19.10;99.90
12053;DHT22;6087;48.982;12.064;2022-09-06T00:51:29;19.20;99.90
12053;DHT22;6087;48.982;12.064;2022-09-06T00:53:57;19.10;99.90
12053;DHT22;6087;48.982;12.064;2022-09-06T00:56:28;19.10;99.90
12053;DHT22;6087;48.982;12.064;2022-09-06T00:58:56;19.10;99.90
12053;DHT22;6087;48.982;12.064;2022-09-06T01:01:24;19.10;99.90
12053;DHT22;6087;48.982;12.064;2022-09-06T01:03:51;19.10;99.90
12053;DHT22;6087;48.982;12.064;2022-09-06T01:06:22;19.10;99.90
12053;DHT22;6087;48.982;12.064;2022-09-06T01:09:00;19.10;99.90
12053;DHT22;6087;48.982;12.064;2022-09-06T01:11:45;19.10;99.90
12053;DHT22;6087;48.982;12.064;2022-09-06T01:14:23;19.00;99.90
12053;DHT22;6087;48.982;12.064;2022-09-06T01:16:56;19.00;99.90
12053;DHT22;6087;48.982;12.064;2022-09-06T01:23:08;19.00;99.90
12053;DHT22;6087;48.982;12.064;2022-09-06T01:25:46;19.00;99.90
12053;DHT22;6087;48.982;12.064;2022-09-06T01:28:29;18.90;99.90
12053;DHT22;6087;48.982;12.064;2022-09-06T01:31:04;18.90;99.90
12053;DHT22;6087;48.982;12.064;2022-09-06T01:33:41;18.90;99.90
12053;DHT22;6087;48.982;12.064;2022-09-06T01:36:15;18.90;99.90
12053;DHT22;6087;48.982;12.064;2022-09-06T01:38:43;18.90;99.90
12053;DHT22;6087;48.982;12.064;2022-09-06T01:41:10;18.80;99.90
12053;DHT22;6087;48.982;12.064;2022-09-06T01:43:42;18.80;99.90
12053;DHT22;6087;48.982;12.064;2022-09-06T01:46:16;18.80;99.90
12053;DHT22;6087;48.982;12.064;2022-09-06T01:49:07;18.80;99.90
12053;DHT22;6087;48.982;12.064;2022-09-06T01:51:46;18.80;99.90
12053;DHT22;6087;48.982;12.064;2022-09-06T01:54:31;18.80;99.90
12053;DHT22;6087;48.982;12.064;2022-09-06T01:57:13;18.80;99.90
12053;DHT22;6087;48.982;12.064;2022-09-06T01:59:56;18.80;99.90
12053;DHT22;6087;48.982;12.064;2022-09-06T02:02:39;18.80;99.90
12053;DHT22;6087;48.982;12.064;2022-09-06T02:05:10;18.70;99.90
12053;DHT22;6087;48.982;12.064;2022-09-06T02:07:41;18.70;99.90
12053;DHT22;6087;48.982;12.064;2022-09-06T02:10:14;18.70;99.90
12053;DHT22;6087;48.982;12.064;2022-09-06T02:12:44;18.70;99.90
12053;DHT22;6087;48.982;12.064;2022-09-06T02:15:17;18.70;99.90
12053;DHT22;6087;48.982;12.064;2022-09-06T02:17:49;18.70;99.90
12053;DHT22;6087;48.982;12.064;2022-09-06T02:20:21;18.70;99.90
12053;DHT22;6087;48.982;12.064;2022-09-06T02:22:52;18.60;99.90
12053;DHT22;6087;48.982;12.064;2022-09-06T02:25:23;18.60;99.90
12053;DHT22;6087;48.982;12.064;2022-09-06T02:27:51;18.60;99.90
12053;DHT22;6087;48.982;12.064;2022-09-06T02:30:20;18.60;99.90
12053;DHT22;6087;48.982;12.064;2022-09-06T02:32:49;18.60;99.90
12053;DHT22;6087;48.982;12.064;2022-09-06T02:35:20;18.60;99.90
12053;DHT22;6087;48.982;12.064;2022-09-06T02:37:48;18.60;99.90
12053;DHT22;6087;48.982;12.064;2022-09-06T02:40:16;18.60;99.90
12053;DHT22;6087;48.982;12.064;2022-09-06T02:42:43;18.60;99.90
12053;DHT22;6087;48.982;12.064;2022-09-06T02:45:10;18.60;99.90
12053;DHT22;6087;48.982;12.064;2022-09-06T02:47:38;18.60;99.90
12053;DHT22;6087;48.982;12.064;2022-09-06T02:50:06;18.50;99.90
12053;DHT22;6087;48.982;12.064;2022-09-06T02:52:33;18.50;99.90
12053;DHT22;6087;48.982;12.064;2022-09-06T02:55:00;18.50;99.90
12053;DHT22;6087;48.982;12.064;2022-09-06T02:57:29;18.50;99.90
12053;DHT22;6087;48.982;12.064;2022-09-06T02:59:56;18.50;99.90
12053;DHT22;6087;48.982;12.064;2022-09-06T03:02:22;18.50;99.90
12053;DHT22;6087;48.982;12.064;2022-09-06T03:04:51;18.50;99.90
12053;DHT22;6087;48.982;12.064;2022-09-06T03:07:18;18.50;99.90
12053;DHT22;6087;48.982;12.064;2022-09-06T03:09:45;18.50;99.90
12053;DHT22;6087;48.982;12.064;2022-09-06T03:12:12;18.50;99.90
12053;DHT22;6087;48.982;12.064;2022-09-06T03:14:39;18.50;99.90
12053;DHT22;6087;48.982;12.064;2022-09-06T03:17:06;18.40;99.90
12053;DHT22;6087;48.982;12.064;2022-09-06T03:19:33;18.40;99.90
12053;DHT22;6087;48.982;12.064;2022-09-06T03:22:01;18.40;99.90
12053;DHT22;6087;48.982;12.064;2022-09-06T03:24:28;18.40;99.90
12053;DHT22;6087;48.982;12.064;2022-09-06T03:26:55;18.40;99.90
12053;DHT22;6087;48.982;12.064;2022-09-06T03:29:22;18.40;99.90
12053;DHT22;6087;48.982;12.064;2022-09-06T03:31:49;18.40;99.90
12053;DHT22;6087;48.982;12.064;2022-09-06T03:34:16;18.30;99.90
12053;DHT22;6087;48.982;12.064;2022-09-06T03:36:43;18.20;99.90
12053;DHT22;6087;48.982;12.064;2022-09-06T03:39:11;18.20;99.90
12053;DHT22;6087;48.982;12.064;2022-09-06T03:41:38;18.20;99.90
12053;DHT22;6087;48.982;12.064;2022-09-06T03:44:05;18.20;99.90
12053;DHT22;6087;48.982;12.064;2022-09-06T03:46:32;18.20;99.90
12053;DHT22;6087;48.982;12.064;2022-09-06T03:48:59;18.20;99.90
12053;DHT22;6087;48.982;12.064;2022-09-06T03:51:26;18.20;99.90
12053;DHT22;6087;48.982;12.064;2022-09-06T03:53:53;18.20;99.90
12053;DHT22;6087;48.982;12.064;2022-09-06T03:56:23;18.20;99.90
12053;DHT22;6087;48.982;12.064;2022-09-06T03:58:50;18.20;99.90
12053;DHT22;6087;48.982;12.064;2022-09-06T04:01:17;18.20;99.90
12053;DHT22;6087;48.982;12.064;2022-09-06T04:03:44;18.20;99.90
12053;DHT22;6087;48.982;12.064;2022-09-06T04:06:11;18.20;99.90
12053;DHT22;6087;48.982;12.064;2022-09-06T04:08:39;18.20;99.90
12053;DHT22;6087;48.982;12.064;2022-09-06T04:11:06;18.20;99.90
12053;DHT22;6087;48.982;12.064;2022-09-06T04:13:35;18.20;99.90
12053;DHT22;6087;48.982;12.064;2022-09-06T04:16:02;18.20;99.90
12053;DHT22;6087;48.982;12.064;2022-09-06T04:18:30;18.20;99.90
12053;DHT22;6087;48.982;12.064;2022-09-06T04:20:57;18.10;99.90
12053;DHT22;6087;48.982;12.064;2022-09-06T04:23:26;18.10;99.90
12053;DHT22;6087;48.982;12.064;2022-09-06T04:25:54;18.10;99.90
12053;DHT22;6087;48.982;12.064;2022-09-06T04:28:22;18.10;99.90
12053;DHT22;6087;48.982;12.064;2022-09-06T04:30:53;18.10;99.90
12053;DHT22;6087;48.982;12.064;2022-09-06T04:33:21;18.10;99.90
12053;DHT22;6087;48.982;12.064;2022-09-06T04:35:51;18.10;99.90
12053;DHT22;6087;48.982;12.064;2022-09-06T04:38:18;18.00;99.90
12053;DHT22;6087;48.982;12.064;2022-09-06T04:40:45;18.00;99.90
12053;DHT22;6087;48.982;12.064;2022-09-06T04:43:12;18.00;99.90
12053;DHT22;6087;48.982;12.064;2022-09-06T04:45:39;18.00;99.90
12053;DHT22;6087;48.982;12.064;2022-09-06T04:48:08;18.00;99.90
12053;DHT22;6087;48.982;12.064;2022-09-06T04:50:35;18.00;99.90
12053;DHT22;6087;48.982;12.064;2022-09-06T04:53:02;18.00;99.90
12053;DHT22;6087;48.982;12.064;2022-09-06T04:55:29;18.00;99.90
12053;DHT22;6087;48.982;12.064;2022-09-06T04:57:56;18.00;99.90
12053;DHT22;6087;48.982;12.064;2022-09-06T05:00:24;18.00;99.90
12053;DHT22;6087;48.982;12.064;2022-09-06T05:02:51;18.00;99.90
12053;DHT22;6087;48.982;12.064;2022-09-06T05:05:20;18.00;99.90
12053;DHT22;6087;48.982;12.064;2022-09-06T05:07:50;18.00;99.90
12053;DHT22;6087;48.982;12.064;2022-09-06T05:10:17;18.00;99.90
12053;DHT22;6087;48.982;12.064;2022-09-06T05:12:47;18.00;99.90
12053;DHT22;6087;48.982;12.064;2022-09-06T05:15:14;18.00;99.90
12053;DHT22;6087;48.982;12.064;2022-09-06T05:17:42;18.00;99.90
12053;DHT22;6087;48.982;12.064;2022-09-06T05:20:10;18.00;99.90
12053;DHT22;6087;48.982;12.064;2022-09-06T05:22:39;18.00;99.90
12053;DHT22;6087;48.982;12.064;2022-09-06T05:25:07;18.00;99.90
12053;DHT22;6087;48.982;12.064;2022-09-06T05:27:34;17.90;99.90
12053;DHT22;6087;48.982;12.064;2022-09-06T05:30:01;18.00;99.90
12053;DHT22;6087;48.982;12.064;2022-09-06T05:32:29;18.00;99.90
12053;DHT22;6087;48.982;12.064;2022-09-06T05:34:55;18.00;99.90
12053;DHT22;6087;48.982;12.064;2022-09-06T05:37:23;18.00;99.90
12053;DHT22;6087;48.982;12.064;2022-09-06T05:39:51;18.00;99.90
12053;DHT22;6087;48.982;12.064;2022-09-06T05:42:18;18.00;99.90
12053;DHT22;6087;48.982;12.064;2022-09-06T05:44:45;18.00;99.90
12053;DHT22;6087;48.982;12.064;2022-09-06T05:47:12;18.10;99.90
12053;DHT22;6087;48.982;12.064;2022-09-06T05:49:39;18.10;99.90
12053;DHT22;6087;48.982;12.064;2022-09-06T05:52:06;18.10;99.90
12053;DHT22;6087;48.982;12.064;2022-09-06T05:54:33;18.10;99.90
12053;DHT22;6087;48.982;12.064;2022-09-06T05:57:01;18.10;99.90
12053;DHT22;6087;48.982;12.064;2022-09-06T05:59:28;18.20;99.90
12053;DHT22;6087;48.982;12.064;2022-09-06T06:01:55;18.20;99.90
12053;DHT22;6087;48.982;12.064;2022-09-06T06:04:22;18.20;99.90
12053;DHT22;6087;48.982;12.064;2022-09-06T06:06:49;18.30;99.90
12053;DHT22;6087;48.982;12.064;2022-09-06T06:09:16;18.30;99.90
12053;DHT22;6087;48.982;12.064;2022-09-06T06:11:43;18.30;99.90
12053;DHT22;6087;48.982;12.064;2022-09-06T06:14:12;18.30;99.90
12053;DHT22;6087;48.982;12.064;2022-09-06T06:16:38;18.40;99.90
12053;DHT22;6087;48.982;12.064;2022-09-06T06:19:05;18.40;99.90
12053;DHT22;6087;48.982;12.064;2022-09-06T06:21:33;18.50;99.90
12053;DHT22;6087;48.982;12.064;2022-09-06T06:24:01;18.50;99.90
12053;DHT22;6087;48.982;12.064;2022-09-06T06:26:30;18.50;99.90
12053;DHT22;6087;48.982;12.064;2022-09-06T06:28:58;18.60;99.90
12053;DHT22;6087;48.982;12.064;2022-09-06T06:31:28;18.60;99.90
12053;DHT22;6087;48.982;12.064;2022-09-06T06:33:55;18.70;99.90
12053;DHT22;6087;48.982;12.064;2022-09-06T06:36:23;18.70;99.90
12053;DHT22;6087;48.982;12.064;2022-09-06T06:38:52;18.80;99.90
12053;DHT22;6087;48.982;12.064;2022-09-06T06:41:21;18.90;99.90
12053;DHT22;6087;48.982;12.064;2022-09-06T06:43:50;18.90;99.90
12053;DHT22;6087;48.982;12.064;2022-09-06T06:46:18;18.90;99.90
12053;DHT22;6087;48.982;12.064;2022-09-06T06:48:47;19.00;99.90
12053;DHT22;6087;48.982;12.064;2022-09-06T06:51:17;19.00;99.90
12053;DHT22;6087;48.982;12.064;2022-09-06T06:53:45;19.00;99.90
12053;DHT22;6087;48.982;12.064;2022-09-06T06:56:15;19.10;99.90
12053;DHT22;6087;48.982;12.064;2022-09-06T06:58:42;19.10;99.90
12053;DHT22;6087;48.982;12.064;2022-09-06T07:01:09;19.10;99.90
12053;DHT22;6087;48.982;12.064;2022-09-06T07:03:37;19.20;99.90
12053;DHT22;6087;48.982;12.064;2022-09-06T07:06:06;19.20;99.90
12053;DHT22;6087;48.982;12.064;2022-09-06T07:08:33;19.20;99.90
12053;DHT22;6087;48.982;12.064;2022-09-06T07:11:01;19.30;99.90
12053;DHT22;6087;48.982;12.064;2022-09-06T07:13:28;19.30;99.90
12053;DHT22;6087;48.982;12.064;2022-09-06T07:16:06;19.30;99.90
12053;DHT22;6087;48.982;12.064;2022-09-06T07:18:33;19.30;99.90
12053;DHT22;6087;48.982;12.064;2022-09-06T07:21:00;19.30;99.90
12053;DHT22;6087;48.982;12.064;2022-09-06T07:23:29;19.30;99.90
12053;DHT22;6087;48.982;12.064;2022-09-06T07:25:56;19.30;99.90
12053;DHT22;6087;48.982;12.064;2022-09-06T07:28:23;19.30;99.90
12053;DHT22;6087;48.982;12.064;2022-09-06T07:30:52;19.40;99.90
12053;DHT22;6087;48.982;12.064;2022-09-06T07:33:20;19.40;99.90
12053;DHT22;6087;48.982;12.064;2022-09-06T07:35:58;19.40;99.90
12053;DHT22;6087;48.982;12.064;2022-09-06T07:38:26;19.50;99.90
12053;DHT22;6087;48.982;12.064;2022-09-06T07:40:57;19.50;99.90
12053;DHT22;6087;48.982;12.064;2022-09-06T07:43:24;19.60;99.90
12053;DHT22;6087;48.982;12.064;2022-09-06T07:46:00;19.60;99.90
12053;DHT22;6087;48.982;12.064;2022-09-06T07:48:28;19.60;99.90
12053;DHT22;6087;48.982;12.064;2022-09-06T07:51:02;19.60;99.90
12053;DHT22;6087;48.982;12.064;2022-09-06T07:53:29;19.60;99.90
12053;DHT22;6087;48.982;12.064;2022-09-06T07:55:58;19.60;99.90
12053;DHT22;6087;48.982;12.064;2022-09-06T07:58:26;19.60;99.90
12053;DHT22;6087;48.982;12.064;2022-09-06T08:00:53;19.70;99.90
12053;DHT22;6087;48.982;12.064;2022-09-06T08:03:20;19.70;99.90
12053;DHT22;6087;48.982;12.064;2022-09-06T08:05:50;19.70;99.90
12053;DHT22;6087;48.982;12.064;2022-09-06T08:08:17;19.80;99.90
12053;DHT22;6087;48.982;12.064;2022-09-06T08:10:48;19.80;99.90
12053;DHT22;6087;48.982;12.064;2022-09-06T08:13:17;19.80;99.90
12053;DHT22;6087;48.982;12.064;2022-09-06T08:15:44;19.80;99.90
12053;DHT22;6087;48.982;12.064;2022-09-06T08:18:11;19.90;99.90
12053;DHT22;6087;48.982;12.064;2022-09-06T08:20:38;19.90;99.90
12053;DHT22;6087;48.982;12.064;2022-09-06T08:23:08;19.90;99.90
12053;DHT22;6087;48.982;12.064;2022-09-06T08:25:35;20.00;99.90
12053;DHT22;6087;48.982;12.064;2022-09-06T08:28:02;20.00;99.90
12053;DHT22;6087;48.982;12.064;2022-09-06T08:30:31;20.10;99.90
12053;DHT22;6087;48.982;12.064;2022-09-06T08:32:59;20.10;99.90
12053;DHT22;6087;48.982;12.064;2022-09-06T08:35:27;20.10;99.90
12053;DHT22;6087;48.982;12.064;2022-09-06T08:37:56;20.10;99.90
12053;DHT22;6087;48.982;12.064;2022-09-06T08:40:23;20.20;99.90
12053;DHT22;6087;48.982;12.064;2022-09-06T08:42:51;20.20;99.90
12053;DHT22;6087;48.982;12.064;2022-09-06T08:45:17;20.20;99.90
12053;DHT22;6087;48.982;12.064;2022-09-06T08:47:47;20.30;99.90
12053;DHT22;6087;48.982;12.064;2022-09-06T08:50:15;20.30;99.90
12053;DHT22;6087;48.982;12.064;2022-09-06T08:52:49;20.40;99.90
12053;DHT22;6087;48.982;12.064;2022-09-06T08:55:31;20.30;99.90
12053;DHT22;6087;48.982;12.064;2022-09-06T08:58:19;20.30;99.90
12053;DHT22;6087;48.982;12.064;2022-09-06T09:00:53;20.40;99.90
12053;DHT22;6087;48.982;12.064;2022-09-06T09:03:30;20.40;99.90
12053;DHT22;6087;48.982;12.064;2022-09-06T09:05:57;20.40;99.90
12053;DHT22;6087;48.982;12.064;2022-09-06T09:08:31;20.50;99.90
12053;DHT22;6087;48.982;12.064;2022-09-06T09:11:02;20.50;99.90
12053;DHT22;6087;48.982;12.064;2022-09-06T09:13:34;20.60;99.90
12053;DHT22;6087;48.982;12.064;2022-09-06T09:16:01;20.60;99.90
12053;DHT22;6087;48.982;12.064;2022-09-06T09:18:33;20.60;99.90
12053;DHT22;6087;48.982;12.064;2022-09-06T09:21:03;20.70;99.90
12053;DHT22;6087;48.982;12.064;2022-09-06T09:23:30;20.70;99.90
12053;DHT22;6087;48.982;12.064;2022-09-06T09:26:01;20.70;99.90
12053;DHT22;6087;48.982;12.064;2022-09-06T09:28:29;20.70;99.90
12053;DHT22;6087;48.982;12.064;2022-09-06T09:30:56;20.80;99.90
12053;DHT22;6087;48.982;12.064;2022-09-06T09:33:28;20.80;99.90
12053;DHT22;6087;48.982;12.064;2022-09-06T09:35:58;20.90;99.90
12053;DHT22;6087;48.982;12.064;2022-09-06T09:38:27;20.90;99.90
12053;DHT22;6087;48.982;12.064;2022-09-06T09:40:56;21.00;99.90
12053;DHT22;6087;48.982;12.064;2022-09-06T09:43:25;21.00;99.90
12053;DHT22;6087;48.982;12.064;2022-09-06T09:46:15;21.00;99.90
12053;DHT22;6087;48.982;12.064;2022-09-06T09:48:58;21.10;99.90
12053;DHT22;6087;48.982;12.064;2022-09-06T09:51:28;21.20;99.90
12053;DHT22;6087;48.982;12.064;2022-09-06T09:53:57;21.20;99.90
12053;DHT22;6087;48.982;12.064;2022-09-06T09:56:33;21.20;99.90
12053;DHT22;6087;48.982;12.064;2022-09-06T09:59:02;21.20;99.90
12053;DHT22;6087;48.982;12.064;2022-09-06T10:01:33;21.30;99.90
12053;DHT22;6087;48.982;12.064;2022-09-06T10:04:02;21.40;99.90
12053;DHT22;6087;48.982;12.064;2022-09-06T10:06:32;21.40;99.90
12053;DHT22;6087;48.982;12.064;2022-09-06T10:09:12;21.50;99.90
12053;DHT22;6087;48.982;12.064;2022-09-06T10:11:48;21.50;99.90
12053;DHT22;6087;48.982;12.064;2022-09-06T10:14:26;21.60;99.90
12053;DHT22;6087;48.982;12.064;2022-09-06T10:16:54;21.60;99.90
12053;DHT22;6087;48.982;12.064;2022-09-06T10:19:27;21.70;99.90
12053;DHT22;6087;48.982;12.064;2022-09-06T10:22:21;21.80;99.90
12053;DHT22;6087;48.982;12.064;2022-09-06T10:25:16;21.90;99.90
12053;DHT22;6087;48.982;12.064;2022-09-06T10:27:58;22.00;99.90
12053;DHT22;6087;48.982;12.064;2022-09-06T10:30:31;22.00;99.90
12053;DHT22;6087;48.982;12.064;2022-09-06T10:33:06;22.10;99.90
12053;DHT22;6087;48.982;12.064;2022-09-06T10:35:37;22.10;99.90
12053;DHT22;6087;48.982;12.064;2022-09-06T10:38:30;22.20;99.90
12053;DHT22;6087;48.982;12.064;2022-09-06T10:41:09;22.20;99.90
12053;DHT22;6087;48.982;12.064;2022-09-06T10:43:43;22.20;99.90
12053;DHT22;6087;48.982;12.064;2022-09-06T10:46:15;22.30;99.90
12053;DHT22;6087;48.982;12.064;2022-09-06T10:48:44;22.40;99.90
12053;DHT22;6087;48.982;12.064;2022-09-06T10:51:15;22.50;99.90
12053;DHT22;6087;48.982;12.064;2022-09-06T10:53:50;22.60;99.90
12053;DHT22;6087;48.982;12.064;2022-09-06T10:56:28;22.70;99.90
12053;DHT22;6087;48.982;12.064;2022-09-06T10:59:01;22.80;99.90
12053;DHT22;6087;48.982;12.064;2022-09-06T11:01:36;22.90;99.90
12053;DHT22;6087;48.982;12.064;2022-09-06T11:04:08;23.00;99.90
12053;DHT22;6087;48.982;12.064;2022-09-06T11:06:43;23.10;99.90
12053;DHT22;6087;48.982;12.064;2022-09-06T11:09:17;23.20;99.90
12053;DHT22;6087;48.982;12.064;2022-09-06T11:11:48;23.30;99.90
12053;DHT22;6087;48.982;12.064;2022-09-06T11:14:18;23.40;99.90
12053;DHT22;6087;48.982;12.064;2022-09-06T11:16:50;23.40;99.90
12053;DHT22;6087;48.982;12.064;2022-09-06T11:19:20;23.50;99.00
12053;DHT22;6087;48.982;12.064;2022-09-06T11:22:17;23.60;98.60
12053;DHT22;6087;48.982;12.064;2022-09-06T11:28:00;23.80;97.70
12053;DHT22;6087;48.982;12.064;2022-09-06T11:30:29;23.80;97.00
12053;DHT22;6087;48.982;12.064;2022-09-06T11:33:08;23.80;98.20
12053;DHT22;6087;48.982;12.064;2022-09-06T11:35:39;23.90;98.00
12053;DHT22;6087;48.982;12.064;2022-09-06T11:38:21;24.10;97.70
12053;DHT22;6087;48.982;12.064;2022-09-06T11:40:56;24.20;99.00
12053;DHT22;6087;48.982;12.064;2022-09-06T11:43:45;24.30;97.50
12053;DHT22;6087;48.982;12.064;2022-09-06T11:49:32;24.40;98.00
12053;DHT22;6087;48.982;12.064;2022-09-06T11:52:00;24.60;97.10
12053;DHT22;6087;48.982;12.064;2022-09-06T11:54:39;24.70;96.80
12053;DHT22;6087;48.982;12.064;2022-09-06T11:57:13;24.80;96.00
12053;DHT22;6087;48.982;12.064;2022-09-06T11:59:51;24.90;96.00
12053;DHT22;6087;48.982;12.064;2022-09-06T12:02:43;25.00;96.40
12053;DHT22;6087;48.982;12.064;2022-09-06T12:05:19;25.20;95.80
12053;DHT22;6087;48.982;12.064;2022-09-06T12:08:22;25.40;95.10
12053;DHT22;6087;48.982;12.064;2022-09-06T12:11:00;25.50;94.50
12053;DHT22;6087;48.982;12.064;2022-09-06T12:13:58;25.60;94.10
12053;DHT22;6087;48.982;12.064;2022-09-06T12:19:42;25.90;93.40
12053;DHT22;6087;48.982;12.064;2022-09-06T12:25:54;26.20;92.90
12053;DHT22;6087;48.982;12.064;2022-09-06T12:28:36;26.30;92.40
12053;DHT22;6087;48.982;12.064;2022-09-06T12:31:33;26.50;91.90
12053;DHT22;6087;48.982;12.064;2022-09-06T12:34:07;26.60;92.30
12053;DHT22;6087;48.982;12.064;2022-09-06T12:36:54;26.80;91.30
12053;DHT22;6087;48.982;12.064;2022-09-06T12:39:22;26.90;90.70
12053;DHT22;6087;48.982;12.064;2022-09-06T12:41:51;27.00;90.60
12053;DHT22;6087;48.982;12.064;2022-09-06T12:44:33;27.20;91.20
12053;DHT22;6087;48.982;12.064;2022-09-06T12:47:09;27.40;89.70
12053;DHT22;6087;48.982;12.064;2022-09-06T12:49:37;27.30;88.80
12053;DHT22;6087;48.982;12.064;2022-09-06T12:52:07;27.40;90.00
12053;DHT22;6087;48.982;12.064;2022-09-06T12:54:42;27.40;89.20
12053;DHT22;6087;48.982;12.064;2022-09-06T12:57:16;27.50;89.60
12053;DHT22;6087;48.982;12.064;2022-09-06T12:59:51;27.60;88.00
12053;DHT22;6087;48.982;12.064;2022-09-06T13:02:25;27.80;88.10
12053;DHT22;6087;48.982;12.064;2022-09-06T13:04:59;27.90;88.80
12053;DHT22;6087;48.982;12.064;2022-09-06T13:07:28;28.00;87.60
12053;DHT22;6087;48.982;12.064;2022-09-06T13:09:56;27.90;85.60
12053;DHT22;6087;48.982;12.064;2022-09-06T13:12:26;28.00;87.40
12053;DHT22;6087;48.982;12.064;2022-09-06T13:14:55;28.10;86.30
12053;DHT22;6087;48.982;12.064;2022-09-06T13:17:26;28.30;87.00
12053;DHT22;6087;48.982;12.064;2022-09-06T13:19:54;28.20;85.00
12053;DHT22;6087;48.982;12.064;2022-09-06T13:22:44;28.20;84.30
12053;DHT22;6087;48.982;12.064;2022-09-06T13:25:23;28.00;85.40
12053;DHT22;6087;48.982;12.064;2022-09-06T13:27:52;27.90;85.00
12053;DHT22;6087;48.982;12.064;2022-09-06T13:30:34;27.80;86.30
12053;DHT22;6087;48.982;12.064;2022-09-06T13:33:02;27.70;86.00
12053;DHT22;6087;48.982;12.064;2022-09-06T13:35:31;27.60;85.60
12053;DHT22;6087;48.982;12.064;2022-09-06T13:38:19;27.50;85.10
12053;DHT22;6087;48.982;12.064;2022-09-06T13:40:48;27.60;85.90
12053;DHT22;6087;48.982;12.064;2022-09-06T13:43:20;27.50;86.20
12053;DHT22;6087;48.982;12.064;2022-09-06T13:45:48;27.40;86.60
12053;DHT22;6087;48.982;12.064;2022-09-06T13:48:15;27.20;87.40
12053;DHT22;6087;48.982;12.064;2022-09-06T13:50:42;27.20;86.80
12053;DHT22;6087;48.982;12.064;2022-09-06T13:53:08;27.20;87.30
12053;DHT22;6087;48.982;12.064;2022-09-06T13:55:37;27.10;87.00
12053;DHT22;6087;48.982;12.064;2022-09-06T13:58:04;27.00;87.10
12053;DHT22;6087;48.982;12.064;2022-09-06T14:00:31;27.10;88.40
12053;DHT22;6087;48.982;12.064;2022-09-06T14:02:58;27.20;88.40
12053;DHT22;6087;48.982;12.064;2022-09-06T14:05:25;27.20;88.10
12053;DHT22;6087;48.982;12.064;2022-09-06T14:07:52;27.30;88.50
12053;DHT22;6087;48.982;12.064;2022-09-06T14:10:19;27.30;88.90
12053;DHT22;6087;48.982;12.064;2022-09-06T14:12:50;27.40;88.50
12053;DHT22;6087;48.982;12.064;2022-09-06T14:15:18;27.50;88.80
12053;DHT22;6087;48.982;12.064;2022-09-06T14:17:46;27.50;87.90
12053;DHT22;6087;48.982;12.064;2022-09-06T14:20:13;27.60;87.00
12053;DHT22;6087;48.982;12.064;2022-09-06T14:22:40;27.60;87.20
12053;DHT22;6087;48.982;12.064;2022-09-06T14:25:07;27.50;87.70
12053;DHT22;6087;48.982;12.064;2022-09-06T14:27:35;27.60;88.00
12053;DHT22;6087;48.982;12.064;2022-09-06T14:30:04;27.70;87.00
12053;DHT22;6087;48.982;12.064;2022-09-06T14:32:31;27.70;87.10
12053;DHT22;6087;48.982;12.064;2022-09-06T14:34:58;27.70;85.90
12053;DHT22;6087;48.982;12.064;2022-09-06T14:37:26;27.50;86.40
12053;DHT22;6087;48.982;12.064;2022-09-06T14:39:53;27.50;87.40
12053;DHT22;6087;48.982;12.064;2022-09-06T14:42:20;27.40;87.70
12053;DHT22;6087;48.982;12.064;2022-09-06T14:44:49;27.40;86.60
12053;DHT22;6087;48.982;12.064;2022-09-06T14:47:17;27.30;85.70
12053;DHT22;6087;48.982;12.064;2022-09-06T14:49:44;27.20;86.00
12053;DHT22;6087;48.982;12.064;2022-09-06T14:52:11;27.30;86.90
12053;DHT22;6087;48.982;12.064;2022-09-06T14:54:38;27.30;88.50
12053;DHT22;6087;48.982;12.064;2022-09-06T14:57:05;27.20;89.00
12053;DHT22;6087;48.982;12.064;2022-09-06T14:59:32;27.10;89.20
12053;DHT22;6087;48.982;12.064;2022-09-06T15:01:59;26.90;89.70
12053;DHT22;6087;48.982;12.064;2022-09-06T15:04:27;26.90;88.30
12053;DHT22;6087;48.982;12.064;2022-09-06T15:06:55;26.70;88.20
12053;DHT22;6087;48.982;12.064;2022-09-06T15:09:22;26.60;88.10
12053;DHT22;6087;48.982;12.064;2022-09-06T15:11:50;26.40;88.70
12053;DHT22;6087;48.982;12.064;2022-09-06T15:14:19;26.30;89.80
12053;DHT22;6087;48.982;12.064;2022-09-06T15:16:47;26.30;89.80
12053;DHT22;6087;48.982;12.064;2022-09-06T15:19:15;26.20;90.20
12053;DHT22;6087;48.982;12.064;2022-09-06T15:21:43;26.30;90.50
12053;DHT22;6087;48.982;12.064;2022-09-06T15:24:11;26.30;90.20
12053;DHT22;6087;48.982;12.064;2022-09-06T15:26:39;26.40;90.40
12053;DHT22;6087;48.982;12.064;2022-09-06T15:29:07;26.50;91.10
12053;DHT22;6087;48.982;12.064;2022-09-06T15:31:34;26.50;90.40
12053;DHT22;6087;48.982;12.064;2022-09-06T15:34:03;26.50;91.10
12053;DHT22;6087;48.982;12.064;2022-09-06T15:36:30;26.50;90.60
12053;DHT22;6087;48.982;12.064;2022-09-06T15:39:00;26.50;90.80
12053;DHT22;6087;48.982;12.064;2022-09-06T15:41:28;26.40;90.70
12053;DHT22;6087;48.982;12.064;2022-09-06T15:43:58;26.40;90.60
12053;DHT22;6087;48.982;12.064;2022-09-06T15:46:44;26.40;90.10
12053;DHT22;6087;48.982;12.064;2022-09-06T15:49:13;26.40;90.70
12053;DHT22;6087;48.982;12.064;2022-09-06T15:51:41;26.20;90.20
12053;DHT22;6087;48.982;12.064;2022-09-06T15:54:10;26.20;90.10
12053;DHT22;6087;48.982;12.064;2022-09-06T15:56:37;26.10;90.40
12053;DHT22;6087;48.982;12.064;2022-09-06T15:59:04;26.10;90.70
12053;DHT22;6087;48.982;12.064;2022-09-06T16:01:32;26.10;90.70
12053;DHT22;6087;48.982;12.064;2022-09-06T16:04:00;26.00;90.30
12053;DHT22;6087;48.982;12.064;2022-09-06T16:06:31;26.00;90.80
12053;DHT22;6087;48.982;12.064;2022-09-06T16:09:00;25.90;90.60